Time,TemperatureF,DewpointF,PressureIn,WindDirection,WindDirectionDegrees,WindSpeedMPH,WindSpeedGustMPH,Humidity,HourlyPrecipIn,Conditions,Clouds,dailyrainin,SoftwareType,DateUTC
2013-08-22 02:43:00,56.2,53.3,29.78,West,269,0.0,0.0,90,0.00,,,0.00,Wunderground v.1.15,2013-08-22 09:43:00,
2013-08-22 02:58:00,55.9,53.0,29.78,West,269,0.0,0.0,90,0.00,,,0.00,Wunderground v.1.15,2013-08-22 09:58:00,
2013-08-22 03:03:00,55.7,52.8,29.79,West,269,0.0,0.0,90,0.00,,,0.00,Wunderground v.1.15,2013-08-22 10:03:00,
2013-08-22 03:18:00,56.3,53.7,29.79,WSW,255,0.0,0.0,91,0.00,,,0.00,Wunderground v.1.15,2013-08-22 10:18:00,
2013-08-22 03:33:00,56.8,53.9,29.79,West,275,0.0,2.0,90,0.00,,,0.00,Wunderground v.1.15,2013-08-22 10:33:00,
2013-08-22 03:48:00,56.8,53.9,29.79,West,259,0.0,0.0,90,0.00,,,0.00,Wunderground v.1.15,2013-08-22 10:48:00,
2013-08-22 05:25:00,63.5,55.8,29.80,West,261,3.0,3.0,76,0.00,,,0.00,Wunderground v.1.15,2013-08-22 12:25:00,
2013-08-22 05:30:00,63.3,55.6,29.80,WSW,239,3.0,4.0,76,0.00,,,0.00,Wunderground v.1.15,2013-08-22 12:30:00,
2013-08-22 05:33:00,57.9,55.0,29.80,SSW,207,1.0,2.0,90,0.00,,,0.00,Wunderground v.1.15,2013-08-22 12:33:00,
2013-08-22 05:35:00,63.3,55.6,29.80,SSW,192,3.0,5.0,76,0.00,,,0.00,Wunderground v.1.15,2013-08-22 12:35:00,
2013-08-22 05:40:00,63.3,55.2,29.80,SSW,202,4.0,6.0,75,0.00,,,0.00,Wunderground v.1.15,2013-08-22 12:40:00,
2013-08-22 05:45:00,63.3,55.6,29.80,SSW,196,4.0,6.0,76,0.00,,,0.00,Wunderground v.1.15,2013-08-22 12:45:00,
2013-08-22 05:50:00,63.2,55.5,29.80,SW,229,4.0,5.0,76,0.00,,,0.00,Wunderground v.1.15,2013-08-22 12:50:00,
2013-08-22 05:53:00,58.0,54.8,29.80,SSW,208,1.0,3.0,89,0.00,,,0.00,Wunderground v.1.15,2013-08-22 12:53:00,
2013-08-22 05:55:00,63.0,55.3,29.80,WSW,243,4.0,6.0,76,0.00,,,0.00,Wunderground v.1.15,2013-08-22 12:55:00,
2013-08-22 06:00:00,62.9,55.2,29.79,WSW,244,4.0,4.0,76,0.00,,,0.00,Wunderground v.1.15,2013-08-22 13:00:00,
2013-08-22 06:03:00,58.1,54.9,29.80,SW,236,2.0,2.0,89,0.00,,,0.00,Wunderground v.1.15,2013-08-22 13:03:00,
2013-08-22 06:05:00,62.8,55.1,29.79,SW,224,4.0,4.0,76,0.00,,,0.00,Wunderground v.1.15,2013-08-22 13:05:00,
2013-08-22 06:10:00,62.8,55.1,29.79,West,269,4.0,4.0,76,0.00,,,0.00,Wunderground v.1.15,2013-08-22 13:10:00,
2013-08-22 06:15:00,62.7,55.0,29.79,SW,217,3.0,4.0,76,0.00,,,0.00,Wunderground v.1.15,2013-08-22 13:15:00,
2013-08-22 06:20:00,62.7,55.0,29.79,WSW,243,2.0,2.0,76,0.00,,,0.00,Wunderground v.1.15,2013-08-22 13:20:00,
2013-08-22 06:23:00,58.3,55.1,29.80,WSW,237,2.0,6.0,89,0.00,,,0.00,Wunderground v.1.15,2013-08-22 13:23:00,
2013-08-22 06:25:00,62.7,55.0,29.79,SW,229,2.0,2.0,76,0.00,,,0.00,Wunderground v.1.15,2013-08-22 13:25:00,
2013-08-22 06:30:00,62.8,54.8,29.79,West,262,1.0,2.0,75,0.00,,,0.00,Wunderground v.1.15,2013-08-22 13:30:00,
2013-08-22 06:35:00,62.8,54.8,29.79,WSW,237,1.0,2.0,75,0.00,,,0.00,Wunderground v.1.15,2013-08-22 13:35:00,
2013-08-22 06:40:00,62.8,54.8,29.79,West,268,1.0,2.0,75,0.00,,,0.00,Wunderground v.1.15,2013-08-22 13:40:00,
2013-08-22 06:45:00,62.6,54.9,29.79,SSE,167,1.0,3.0,76,0.00,,,0.00,Wunderground v.1.15,2013-08-22 13:45:00,
2013-08-22 06:50:00,62.4,55.1,29.79,WSW,250,1.0,1.0,77,0.00,,,0.00,Wunderground v.1.15,2013-08-22 13:50:00,
2013-08-22 06:55:00,62.2,55.3,29.79,SW,219,0.0,1.0,78,0.00,,,0.00,Wunderground v.1.15,2013-08-22 13:55:00,
2013-08-22 06:58:00,58.1,54.9,29.81,WSW,253,3.0,3.0,89,0.00,,,0.00,Wunderground v.1.15,2013-08-22 13:58:00,
2013-08-22 07:00:00,62.0,55.1,29.80,SW,227,0.0,1.0,78,0.00,,,0.00,Wunderground v.1.15,2013-08-22 14:00:00,
2013-08-22 07:05:00,61.8,55.2,29.80,West,269,0.0,1.0,79,0.00,,,0.00,Wunderground v.1.15,2013-08-22 14:05:00,
2013-08-22 07:08:00,58.3,55.1,29.81,WSW,245,1.0,1.0,89,0.00,,,0.00,Wunderground v.1.15,2013-08-22 14:08:00,
2013-08-22 07:10:00,61.6,55.0,29.80,SW,219,0.0,2.0,79,0.00,,,0.00,Wunderground v.1.15,2013-08-22 14:10:00,
2013-08-22 07:15:00,61.5,55.3,29.80,WSW,237,0.0,2.0,80,0.00,,,0.00,Wunderground v.1.15,2013-08-22 14:15:00,
2013-08-22 07:20:00,61.4,55.2,29.80,WSW,252,0.0,1.0,80,0.00,,,0.00,Wunderground v.1.15,2013-08-22 14:20:00,
2013-08-22 07:23:00,58.6,55.4,29.81,SW,223,1.0,2.0,89,0.00,,,0.00,Wunderground v.1.15,2013-08-22 14:23:00,
2013-08-22 07:25:00,61.3,55.1,29.80,WSW,239,0.0,1.0,80,0.00,,,0.00,Wunderground v.1.15,2013-08-22 14:25:00,
2013-08-22 07:28:00,58.7,55.5,29.81,SW,231,2.0,6.0,89,0.00,,,0.00,Wunderground v.1.15,2013-08-22 14:28:00,
2013-08-22 07:30:00,61.1,55.2,29.80,WSW,240,0.0,0.0,81,0.00,,,0.00,Wunderground v.1.15,2013-08-22 14:30:00,
2013-08-22 07:35:00,60.9,55.0,29.80,SW,230,0.0,0.0,81,0.00,,,0.00,Wunderground v.1.15,2013-08-22 14:35:00,
2013-08-22 07:38:00,58.8,55.3,29.82,SSW,199,3.0,5.0,88,0.00,,,0.00,Wunderground v.1.15,2013-08-22 14:38:00,
2013-08-22 07:40:00,60.7,54.8,29.80,SSW,207,0.0,2.0,81,0.00,,,0.00,Wunderground v.1.15,2013-08-22 14:40:00,
2013-08-22 07:45:00,60.7,55.2,29.80,West,261,1.0,2.0,82,0.00,,,0.00,Wunderground v.1.15,2013-08-22 14:45:00,
2013-08-22 07:48:00,58.7,55.2,29.82,SW,219,3.0,3.0,88,0.00,,,0.00,Wunderground v.1.15,2013-08-22 14:48:00,
2013-08-22 07:50:00,60.7,54.8,29.80,WSW,237,1.0,1.0,81,0.00,,,0.00,Wunderground v.1.15,2013-08-22 14:50:00,
2013-08-22 07:55:00,60.5,55.0,29.80,SW,228,0.0,1.0,82,0.00,,,0.00,Wunderground v.1.15,2013-08-22 14:55:00,
2013-08-22 07:58:00,58.7,54.8,29.82,West,274,2.0,2.0,87,0.00,,,0.00,Wunderground v.1.15,2013-08-22 14:58:00,
2013-08-22 08:00:00,60.3,54.8,29.79,SW,228,0.0,0.0,82,0.00,,,0.00,Wunderground v.1.15,2013-08-22 15:00:00,
2013-08-22 08:05:00,60.2,54.7,29.79,SW,229,0.0,0.0,82,0.00,,,0.00,Wunderground v.1.15,2013-08-22 15:05:00,
2013-08-22 08:08:00,58.7,54.8,29.83,SW,224,3.0,3.0,87,0.00,,,0.00,Wunderground v.1.15,2013-08-22 15:08:00,
2013-08-22 08:10:00,60.0,54.8,29.79,SW,229,0.0,0.0,83,0.00,,,0.00,Wunderground v.1.15,2013-08-22 15:10:00,
2013-08-22 08:15:00,59.7,54.5,29.79,SW,229,0.0,0.0,83,0.00,,,0.00,Wunderground v.1.15,2013-08-22 15:15:00,
2013-08-22 08:18:00,58.9,55.0,29.83,WSW,243,3.0,4.0,87,0.00,,,0.00,Wunderground v.1.15,2013-08-22 15:18:00,
2013-08-22 08:20:00,59.6,54.4,29.79,SW,229,0.0,0.0,83,0.00,,,0.00,Wunderground v.1.15,2013-08-22 15:20:00,
2013-08-22 08:23:00,59.1,55.2,29.83,SW,231,2.0,4.0,87,0.00,,,0.00,Wunderground v.1.15,2013-08-22 15:23:00,
2013-08-22 08:25:00,59.3,54.5,29.79,SW,229,0.0,0.0,84,0.00,,,0.00,Wunderground v.1.15,2013-08-22 15:25:00,
2013-08-22 08:30:00,59.1,54.3,29.79,SW,228,0.0,0.0,84,0.00,,,0.00,Wunderground v.1.15,2013-08-22 15:30:00,
2013-08-22 08:33:00,59.6,55.4,29.83,West,265,2.0,3.0,86,0.00,,,0.00,Wunderground v.1.15,2013-08-22 15:33:00,
2013-08-22 08:35:00,58.9,54.1,29.79,SW,228,0.0,0.0,84,0.00,,,0.00,Wunderground v.1.15,2013-08-22 15:35:00,
2013-08-22 08:40:00,58.7,53.9,29.79,SW,228,0.0,0.0,84,0.00,,,0.00,Wunderground v.1.15,2013-08-22 15:40:00,
2013-08-22 08:45:00,58.5,54.0,29.79,SW,228,0.0,0.0,85,0.00,,,0.00,Wunderground v.1.15,2013-08-22 15:45:00,
2013-08-22 08:50:00,58.3,53.8,29.79,SW,229,0.0,0.0,85,0.00,,,0.00,Wunderground v.1.15,2013-08-22 15:50:00,
2013-08-22 08:53:00,60.0,55.2,29.84,South,171,3.0,6.0,84,0.00,,,0.00,Wunderground v.1.15,2013-08-22 15:53:00,
2013-08-22 08:55:00,58.0,53.5,29.78,SW,229,0.0,0.0,85,0.00,,,0.00,Wunderground v.1.15,2013-08-22 15:55:00,
2013-08-22 09:00:00,57.9,53.7,29.79,SW,229,0.0,0.0,86,0.00,,,0.00,Wunderground v.1.15,2013-08-22 16:00:00,
2013-08-22 09:05:00,57.9,54.1,29.79,SW,228,0.0,0.0,87,0.00,,,0.00,Wunderground v.1.15,2013-08-22 16:05:00,
2013-08-22 09:08:00,60.1,54.9,29.84,WSW,240,4.0,4.0,83,0.00,,,0.00,Wunderground v.1.15,2013-08-22 16:08:00,
2013-08-22 09:10:00,58.0,54.2,29.79,SW,229,0.0,0.0,87,0.00,,,0.00,Wunderground v.1.15,2013-08-22 16:10:00,
2013-08-22 09:15:00,58.0,54.2,29.78,SW,228,0.0,0.0,87,0.00,,,0.00,Wunderground v.1.15,2013-08-22 16:15:00,
2013-08-22 09:20:00,58.0,54.5,29.79,SW,229,0.0,0.0,88,0.00,,,0.00,Wunderground v.1.15,2013-08-22 16:20:00,
2013-08-22 09:25:00,57.9,54.1,29.79,SW,217,0.0,1.0,87,0.00,,,0.00,Wunderground v.1.15,2013-08-22 16:25:00,
2013-08-22 09:30:00,57.8,54.0,29.79,SW,217,0.0,0.0,87,0.00,,,0.00,Wunderground v.1.15,2013-08-22 16:30:00,
2013-08-22 09:33:00,61.1,55.2,29.84,WSW,254,3.0,5.0,81,0.00,,,0.00,Wunderground v.1.15,2013-08-22 16:33:00,
2013-08-22 09:35:00,57.6,53.8,29.79,SSW,212,0.0,1.0,87,0.00,,,0.00,Wunderground v.1.15,2013-08-22 16:35:00,
2013-08-22 09:38:00,61.3,55.1,29.84,SSW,195,4.0,4.0,80,0.00,,,0.00,Wunderground v.1.15,2013-08-22 16:38:00,
2013-08-22 09:40:00,57.5,53.7,29.79,SSW,197,1.0,2.0,87,0.00,,,0.00,Wunderground v.1.15,2013-08-22 16:40:00,
2013-08-22 09:45:00,57.4,53.6,29.79,SSW,197,1.0,2.0,87,0.00,,,0.00,Wunderground v.1.15,2013-08-22 16:45:00,
2013-08-22 09:48:00,61.7,55.5,29.84,WNW,288,4.0,4.0,80,0.00,,,0.00,Wunderground v.1.15,2013-08-22 16:48:00,
2013-08-22 09:50:00,57.2,53.4,29.79,SSW,198,0.0,0.0,87,0.00,,,0.00,Wunderground v.1.15,2013-08-22 16:50:00,
2013-08-22 09:55:00,57.1,53.6,29.78,SSW,198,0.0,0.0,88,0.00,,,0.00,Wunderground v.1.15,2013-08-22 16:55:00,
2013-08-22 09:58:00,62.3,55.4,29.84,WSW,245,4.0,4.0,78,0.00,,,0.00,Wunderground v.1.15,2013-08-22 16:58:00,
2013-08-22 10:00:00,57.0,53.5,29.78,SSW,198,0.0,0.0,88,0.00,,,0.00,Wunderground v.1.15,2013-08-22 17:00:00,
2013-08-22 10:03:00,62.6,55.3,29.84,WSW,237,4.0,4.0,77,0.00,,,0.00,Wunderground v.1.15,2013-08-22 17:03:00,
2013-08-22 10:05:00,57.0,53.5,29.78,SSW,198,0.0,0.0,88,0.00,,,0.00,Wunderground v.1.15,2013-08-22 17:05:00,
2013-08-22 10:08:00,63.3,56.3,29.84,West,276,3.0,4.0,78,0.00,,,0.00,Wunderground v.1.15,2013-08-22 17:08:00,
2013-08-22 10:10:00,56.9,53.7,29.78,SSW,197,0.0,0.0,89,0.00,,,0.00,Wunderground v.1.15,2013-08-22 17:10:00,
2013-08-22 10:15:00,56.8,53.6,29.78,SSW,198,0.0,0.0,89,0.00,,,0.00,Wunderground v.1.15,2013-08-22 17:15:00,
2013-08-22 10:20:00,56.8,53.6,29.78,SSW,198,0.0,0.0,89,0.00,,,0.00,Wunderground v.1.15,2013-08-22 17:20:00,
2013-08-22 10:25:00,56.7,53.5,29.77,SSW,197,0.0,0.0,89,0.00,,,0.00,Wunderground v.1.15,2013-08-22 17:25:00,
2013-08-22 10:28:00,63.9,55.8,29.84,WNW,290,4.0,6.0,75,0.00,,,0.00,Wunderground v.1.15,2013-08-22 17:28:00,
2013-08-22 10:30:00,56.5,53.3,29.77,SSW,197,0.0,0.0,89,0.00,,,0.00,Wunderground v.1.15,2013-08-22 17:30:00,
2013-08-22 10:33:00,64.2,56.1,29.84,SW,231,4.0,6.0,75,0.00,,,0.00,Wunderground v.1.15,2013-08-22 17:33:00,
2013-08-22 10:35:00,56.6,53.7,29.77,SSW,199,0.0,0.0,90,0.00,,,0.00,Wunderground v.1.15,2013-08-22 17:35:00,
2013-08-22 10:40:00,56.7,53.8,29.77,SSW,199,0.0,0.0,90,0.00,,,0.00,Wunderground v.1.15,2013-08-22 17:40:00,
2013-08-22 10:43:00,64.7,56.2,29.84,WSW,239,4.0,6.0,74,0.00,,,0.00,Wunderground v.1.15,2013-08-22 17:43:00,
2013-08-22 10:45:00,56.5,53.3,29.77,SSW,199,0.0,0.0,89,0.00,,,0.00,Wunderground v.1.15,2013-08-22 17:45:00,
2013-08-22 10:50:00,56.5,53.3,29.77,SSW,199,0.0,0.0,89,0.00,,,0.00,Wunderground v.1.15,2013-08-22 17:50:00,
2013-08-22 10:53:00,65.2,56.3,29.85,WSW,252,4.0,11.0,73,0.00,,,0.00,Wunderground v.1.15,2013-08-22 17:53:00,
2013-08-22 10:55:00,56.4,53.5,29.77,SSW,199,0.0,0.0,90,0.00,,,0.00,Wunderground v.1.15,2013-08-22 17:55:00,
2013-08-22 11:00:00,56.3,53.4,29.77,SSW,199,0.0,0.0,90,0.00,,,0.00,Wunderground v.1.15,2013-08-22 18:00:00,
2013-08-22 11:03:00,65.7,56.4,29.84,WSW,250,4.0,6.0,72,0.00,,,0.00,Wunderground v.1.15,2013-08-22 18:03:00,
2013-08-22 11:05:00,56.2,53.3,29.77,SSW,199,0.0,0.0,90,0.00,,,0.00,Wunderground v.1.15,2013-08-22 18:05:00,
2013-08-22 11:08:00,66.0,56.3,29.84,WNW,286,5.0,7.0,71,0.00,,,0.00,Wunderground v.1.15,2013-08-22 18:08:00,
2013-08-22 11:10:00,56.2,53.3,29.77,SSW,199,0.0,0.0,90,0.00,,,0.00,Wunderground v.1.15,2013-08-22 18:10:00,
2013-08-22 11:15:00,56.2,53.3,29.77,SSW,198,0.0,0.0,90,0.00,,,0.00,Wunderground v.1.15,2013-08-22 18:15:00,
2013-08-22 11:18:00,65.6,55.9,29.84,West,278,5.0,8.0,71,0.00,,,0.00,Wunderground v.1.15,2013-08-22 18:18:00,
2013-08-22 11:20:00,56.1,53.2,29.77,SSW,198,0.0,0.0,90,0.00,,,0.00,Wunderground v.1.15,2013-08-22 18:20:00,
2013-08-22 11:25:00,55.9,53.0,29.76,SSW,197,0.0,0.0,90,0.00,,,0.00,Wunderground v.1.15,2013-08-22 18:25:00,
2013-08-22 11:30:00,55.7,52.8,29.76,SSW,197,0.0,0.0,90,0.00,,,0.00,Wunderground v.1.15,2013-08-22 18:30:00,
2013-08-22 11:33:00,66.7,57.0,29.84,WSW,252,4.0,6.0,71,0.00,,,0.00,Wunderground v.1.15,2013-08-22 18:33:00,
2013-08-22 11:35:00,55.4,52.2,29.76,SSW,198,0.0,0.0,89,0.00,,,0.00,Wunderground v.1.15,2013-08-22 18:35:00,
2013-08-22 11:38:00,67.4,56.9,29.84,West,281,4.0,8.0,69,0.00,,,0.00,Wunderground v.1.15,2013-08-22 18:38:00,
2013-08-22 11:40:00,55.0,52.1,29.76,SSW,198,0.0,0.0,90,0.00,,,0.00,Wunderground v.1.15,2013-08-22 18:40:00,
2013-08-22 11:45:00,55.2,52.6,29.76,SSW,197,0.0,0.0,91,0.00,,,0.00,Wunderground v.1.15,2013-08-22 18:45:00,
2013-08-22 11:48:00,67.3,56.4,29.83,West,263,5.0,5.0,68,0.00,,,0.00,Wunderground v.1.15,2013-08-22 18:48:00,
2013-08-22 11:50:00,55.2,52.6,29.76,SSW,197,0.0,0.0,91,0.00,,,0.00,Wunderground v.1.15,2013-08-22 18:50:00,
2013-08-22 11:55:00,55.1,52.2,29.76,SSW,198,0.0,0.0,90,0.00,,,0.00,Wunderground v.1.15,2013-08-22 18:55:00,
2013-08-22 12:00:00,55.2,52.6,29.76,SSW,198,0.0,0.0,91,0.00,,,0.00,Wunderground v.1.15,2013-08-22 19:00:00,
2013-08-22 12:03:00,68.2,56.4,29.83,SW,235,5.0,5.0,66,0.00,,,0.00,Wunderground v.1.15,2013-08-22 19:03:00,
2013-08-22 12:05:00,55.2,52.6,29.76,SSW,198,0.0,0.0,91,0.00,,,0.00,Wunderground v.1.15,2013-08-22 19:05:00,
2013-08-22 12:10:00,55.1,52.5,29.76,SSW,198,0.0,0.0,91,0.00,,,0.00,Wunderground v.1.15,2013-08-22 19:10:00,
2013-08-22 12:13:00,68.0,56.6,29.83,SW,231,4.0,8.0,67,0.00,,,0.00,Wunderground v.1.15,2013-08-22 19:13:00,
2013-08-22 12:15:00,55.0,52.4,29.76,SSW,198,0.0,0.0,91,0.00,,,0.00,Wunderground v.1.15,2013-08-22 19:15:00,
2013-08-22 12:20:00,54.8,52.2,29.76,SSW,198,0.0,0.0,91,0.00,,,0.00,Wunderground v.1.15,2013-08-22 19:20:00,
2013-08-22 12:23:00,69.5,56.3,29.83,WSW,243,4.0,5.0,63,0.00,,,0.00,Wunderground v.1.15,2013-08-22 19:23:00,
2013-08-22 12:25:00,54.8,52.2,29.76,SSW,198,0.0,0.0,91,0.00,,,0.00,Wunderground v.1.15,2013-08-22 19:25:00,
2013-08-22 12:30:00,54.8,52.2,29.76,SSW,198,0.0,0.0,91,0.00,,,0.00,Wunderground v.1.15,2013-08-22 19:30:00,
2013-08-22 12:33:00,70.2,57.0,29.82,West,277,3.0,5.0,63,0.00,,,0.00,Wunderground v.1.15,2013-08-22 19:33:00,
2013-08-22 12:35:00,54.7,52.1,29.76,SSW,197,0.0,0.0,91,0.00,,,0.00,Wunderground v.1.15,2013-08-22 19:35:00,
2013-08-22 12:40:00,54.5,51.9,29.76,SSW,198,0.0,0.0,91,0.00,,,0.00,Wunderground v.1.15,2013-08-22 19:40:00,
2013-08-22 12:43:00,70.5,56.9,29.82,WSW,240,4.0,4.0,62,0.00,,,0.00,Wunderground v.1.15,2013-08-22 19:43:00,
2013-08-22 12:45:00,54.5,52.2,29.76,SSW,197,0.0,0.0,92,0.00,,,0.00,Wunderground v.1.15,2013-08-22 19:45:00,
2013-08-22 12:50:00,54.4,51.8,29.76,SSW,198,0.0,0.0,91,0.00,,,0.00,Wunderground v.1.15,2013-08-22 19:50:00,
2013-08-22 12:53:00,70.7,57.0,29.82,SW,233,3.0,4.0,62,0.00,,,0.00,Wunderground v.1.15,2013-08-22 19:53:00,
2013-08-22 12:55:00,79.3,57.9,29.69,WSW,242,6.0,9.0,48,0.00,,,0.00,Wunderground v.1.15,2013-08-22 19:55:00,
2013-08-22 13:00:00,79.0,57.6,29.69,SSW,200,5.0,5.0,48,0.00,,,0.00,Wunderground v.1.15,2013-08-22 20:00:00,
2013-08-22 13:03:00,71.3,57.6,29.82,WNW,295,4.0,8.0,62,0.00,,,0.00,Wunderground v.1.15,2013-08-22 20:03:00,
2013-08-22 13:05:00,78.4,57.7,29.70,SW,230,5.0,5.0,49,0.00,,,0.00,Wunderground v.1.15,2013-08-22 20:05:00,
2013-08-22 13:10:00,78.2,57.5,29.70,SE,131,5.0,5.0,49,0.00,,,0.00,Wunderground v.1.15,2013-08-22 20:10:00,
2013-08-22 13:13:00,72.0,57.4,29.81,WSW,250,5.0,7.0,60,0.00,,,0.00,Wunderground v.1.15,2013-08-22 20:13:00,
2013-08-22 13:15:00,77.3,57.8,29.70,South,191,5.0,5.0,51,0.00,,,0.00,Wunderground v.1.15,2013-08-22 20:15:00,
2013-08-22 13:18:00,72.0,56.9,29.81,West,261,5.0,5.0,59,0.00,,,0.00,Wunderground v.1.15,2013-08-22 20:18:00,
2013-08-22 13:20:00,76.7,57.7,29.70,SW,233,6.0,6.0,52,0.00,,,0.00,Wunderground v.1.15,2013-08-22 20:20:00,
2013-08-22 13:25:00,76.2,57.3,29.70,South,169,6.0,9.0,52,0.00,,,0.00,Wunderground v.1.15,2013-08-22 20:25:00,
2013-08-22 13:30:00,75.3,57.5,29.70,SSW,212,5.0,5.0,54,0.00,,,0.00,Wunderground v.1.15,2013-08-22 20:30:00,
2013-08-22 13:33:00,72.8,56.7,29.81,SSE,162,4.0,4.0,57,0.00,,,0.00,Wunderground v.1.15,2013-08-22 20:33:00,
2013-08-22 13:35:00,74.7,56.9,29.70,SE,146,6.0,6.0,54,0.00,,,0.00,Wunderground v.1.15,2013-08-22 20:35:00,
2013-08-22 13:38:00,73.3,57.1,29.81,WNW,292,4.0,7.0,57,0.00,,,0.00,Wunderground v.1.15,2013-08-22 20:38:00,
2013-08-22 13:40:00,74.2,57.5,29.70,SSW,207,6.0,6.0,56,0.00,,,0.00,Wunderground v.1.15,2013-08-22 20:40:00,
2013-08-22 13:45:00,74.0,57.8,29.70,SSW,213,6.0,7.0,57,0.00,,,0.00,Wunderground v.1.15,2013-08-22 20:45:00,
2013-08-22 13:48:00,73.9,56.7,29.81,WSW,248,4.0,4.0,55,0.00,,,0.00,Wunderground v.1.15,2013-08-22 20:48:00,
2013-08-22 13:50:00,73.3,57.6,29.70,SSW,213,5.0,6.0,58,0.00,,,0.00,Wunderground v.1.15,2013-08-22 20:50:00,
2013-08-22 13:55:00,72.5,57.4,29.70,SSW,213,5.0,6.0,59,0.00,,,0.00,Wunderground v.1.15,2013-08-22 20:55:00,
2013-08-22 13:58:00,73.6,56.4,29.80,WNW,285,5.0,5.0,55,0.00,,,0.00,Wunderground v.1.15,2013-08-22 20:58:00,
2013-08-22 14:00:00,72.0,57.8,29.71,WSW,252,5.0,8.0,61,0.00,,,0.00,Wunderground v.1.15,2013-08-22 21:00:00,
2013-08-22 14:03:00,74.2,57.0,29.80,WSW,245,5.0,5.0,55,0.00,,,0.00,Wunderground v.1.15,2013-08-22 21:03:00,
2013-08-22 14:05:00,71.4,58.1,29.71,SSW,208,6.0,8.0,63,0.00,,,0.00,Wunderground v.1.15,2013-08-22 21:05:00,
2013-08-22 14:10:00,70.9,58.1,29.71,SSE,158,6.0,6.0,64,0.00,,,0.00,Wunderground v.1.15,2013-08-22 21:10:00,
2013-08-22 14:13:00,74.9,56.6,29.80,WSW,252,4.0,6.0,53,0.00,,,0.00,Wunderground v.1.15,2013-08-22 21:13:00,
2013-08-22 14:15:00,70.3,57.5,29.71,SSW,205,6.0,6.0,64,0.00,,,0.00,Wunderground v.1.15,2013-08-22 21:15:00,
2013-08-22 14:20:00,69.8,57.5,29.71,SW,226,7.0,7.0,65,0.00,,,0.00,Wunderground v.1.15,2013-08-22 21:20:00,
2013-08-22 14:25:00,69.6,58.2,29.71,SSW,210,7.0,7.0,67,0.00,,,0.00,Wunderground v.1.15,2013-08-22 21:25:00,
2013-08-22 14:28:00,76.3,57.4,29.79,SW,236,3.0,5.0,52,0.00,,,0.00,Wunderground v.1.15,2013-08-22 21:28:00,
2013-08-22 14:30:00,69.6,58.2,29.72,SW,233,5.0,5.0,67,0.00,,,0.00,Wunderground v.1.15,2013-08-22 21:30:00,
2013-08-22 14:33:00,77.1,57.6,29.79,West,268,3.0,5.0,51,0.00,,,0.00,Wunderground v.1.15,2013-08-22 21:33:00,
2013-08-22 14:35:00,69.2,58.6,29.71,SSW,205,4.0,5.0,69,0.00,,,0.00,Wunderground v.1.15,2013-08-22 21:35:00,
2013-08-22 14:40:00,68.6,58.0,29.71,South,181,5.0,5.0,69,0.00,,,0.00,Wunderground v.1.15,2013-08-22 21:40:00,
2013-08-22 14:43:00,76.9,57.4,29.78,SSW,199,4.0,4.0,51,0.00,,,0.00,Wunderground v.1.15,2013-08-22 21:43:00,
2013-08-22 14:45:00,68.1,57.9,29.71,SW,229,5.0,7.0,70,0.00,,,0.00,Wunderground v.1.15,2013-08-22 21:45:00,
2013-08-22 14:50:00,67.7,58.0,29.71,WSW,252,6.0,6.0,71,0.00,,,0.00,Wunderground v.1.15,2013-08-22 21:50:00,
2013-08-22 14:53:00,76.8,56.2,29.78,WSW,243,4.0,4.0,49,0.00,,,0.00,Wunderground v.1.15,2013-08-22 21:53:00,
2013-08-22 14:55:00,67.2,57.9,29.72,SSW,199,6.0,6.0,72,0.00,,,0.00,Wunderground v.1.15,2013-08-22 21:55:00,
2013-08-22 15:00:00,67.0,58.1,29.72,SSW,199,5.0,5.0,73,0.00,,,0.00,Wunderground v.1.15,2013-08-22 22:00:00,
2013-08-22 15:03:00,77.2,56.6,29.78,NW,308,4.0,6.0,49,0.00,,,0.00,Wunderground v.1.15,2013-08-22 22:03:00,
2013-08-22 15:05:00,66.7,58.1,29.72,West,264,4.0,5.0,74,0.00,,,0.00,Wunderground v.1.15,2013-08-22 22:05:00,
2013-08-22 15:08:00,77.7,56.4,29.78,WSW,239,5.0,6.0,48,0.00,,,0.00,Wunderground v.1.15,2013-08-22 22:08:00,
2013-08-22 15:10:00,66.3,58.1,29.72,South,174,5.0,5.0,75,0.00,,,0.00,Wunderground v.1.15,2013-08-22 22:10:00,
2013-08-22 15:13:00,77.7,57.0,29.78,WSW,238,6.0,9.0,49,0.00,,,0.00,Wunderground v.1.15,2013-08-22 22:13:00,
2013-08-22 15:15:00,66.0,58.2,29.72,SW,230,5.0,5.0,76,0.00,,,0.00,Wunderground v.1.15,2013-08-22 22:15:00,
2013-08-22 15:20:00,65.9,58.1,29.72,SW,219,4.0,4.0,76,0.00,,,0.00,Wunderground v.1.15,2013-08-22 22:20:00,
2013-08-22 15:23:00,77.9,57.2,29.77,WSW,252,6.0,12.0,49,0.00,,,0.00,Wunderground v.1.15,2013-08-22 22:23:00,
2013-08-22 15:25:00,65.6,58.2,29.72,West,268,4.0,4.0,77,0.00,,,0.00,Wunderground v.1.15,2013-08-22 22:25:00,
2013-08-22 15:30:00,65.5,58.1,29.72,SSW,208,3.0,3.0,77,0.00,,,0.00,Wunderground v.1.15,2013-08-22 22:30:00,
2013-08-22 15:33:00,77.2,56.6,29.77,West,277,6.0,8.0,49,0.00,,,0.00,Wunderground v.1.15,2013-08-22 22:33:00,
2013-08-22 15:35:00,65.3,58.3,29.73,SW,219,3.0,4.0,78,0.00,,,0.00,Wunderground v.1.15,2013-08-22 22:35:00,
2013-08-22 15:38:00,77.5,56.8,29.77,West,278,6.0,8.0,49,0.00,,,0.00,Wunderground v.1.15,2013-08-22 22:38:00,
2013-08-22 15:40:00,65.1,58.1,29.73,WSW,240,4.0,5.0,78,0.00,,,0.00,Wunderground v.1.15,2013-08-22 22:40:00,
2013-08-22 15:45:00,65.0,58.3,29.73,West,262,4.0,5.0,79,0.00,,,0.00,Wunderground v.1.15,2013-08-22 22:45:00,
2013-08-22 15:48:00,77.8,57.1,29.76,West,279,6.0,12.0,49,0.00,,,0.00,Wunderground v.1.15,2013-08-22 22:48:00,
2013-08-22 15:50:00,64.7,58.0,29.73,SW,219,4.0,4.0,79,0.00,,,0.00,Wunderground v.1.15,2013-08-22 22:50:00,
2013-08-22 15:55:00,64.6,57.9,29.73,SW,219,4.0,5.0,79,0.00,,,0.00,Wunderground v.1.15,2013-08-22 22:55:00,
2013-08-22 15:58:00,77.1,57.0,29.76,WSW,248,7.0,8.0,50,0.00,,,0.00,Wunderground v.1.15,2013-08-22 22:58:00,
2013-08-22 16:00:00,64.5,57.8,29.73,SW,225,5.0,5.0,79,0.00,,,0.00,Wunderground v.1.15,2013-08-22 23:00:00,
2013-08-22 16:05:00,64.4,57.7,29.73,West,265,4.0,5.0,79,0.00,,,0.00,Wunderground v.1.15,2013-08-22 23:05:00,
2013-08-22 16:08:00,77.3,56.6,29.76,WNW,288,6.0,7.0,49,0.00,,,0.00,Wunderground v.1.15,2013-08-22 23:08:00,
2013-08-22 16:10:00,64.3,58.0,29.74,SW,230,3.0,3.0,80,0.00,,,0.00,Wunderground v.1.15,2013-08-22 23:10:00,
2013-08-22 16:15:00,64.2,57.9,29.74,WSW,257,3.0,3.0,80,0.00,,,0.00,Wunderground v.1.15,2013-08-22 23:15:00,
2013-08-22 16:18:00,77.8,57.7,29.76,WSW,250,5.0,5.0,50,0.00,,,0.00,Wunderground v.1.15,2013-08-22 23:18:00,
2013-08-22 16:20:00,64.1,57.8,29.74,WSW,239,2.0,2.0,80,0.00,,,0.00,Wunderground v.1.15,2013-08-22 23:20:00,
2013-08-22 16:23:00,77.5,56.3,29.76,WSW,257,5.0,11.0,48,0.00,,,0.00,Wunderground v.1.15,2013-08-22 23:23:00,
2013-08-22 16:25:00,63.9,58.0,29.74,SSW,202,3.0,3.0,81,0.00,,,0.00,Wunderground v.1.15,2013-08-22 23:25:00,
2013-08-22 16:30:00,63.7,58.1,29.74,SSE,162,3.0,3.0,82,0.00,,,0.00,Wunderground v.1.15,2013-08-22 23:30:00,
2013-08-22 16:33:00,76.4,55.8,29.76,WSW,250,6.0,10.0,49,0.00,,,0.00,Wunderground v.1.15,2013-08-22 23:33:00,
2013-08-22 16:35:00,63.5,57.9,29.74,SSW,207,2.0,3.0,82,0.00,,,0.00,Wunderground v.1.15,2013-08-22 23:35:00,
2013-08-22 16:40:00,63.4,57.8,29.74,South,184,2.0,4.0,82,0.00,,,0.00,Wunderground v.1.15,2013-08-22 23:40:00,
2013-08-22 16:43:00,75.5,55.6,29.76,SW,231,7.0,8.0,50,0.00,,,0.00,Wunderground v.1.15,2013-08-22 23:43:00,
2013-08-22 16:45:00,63.3,58.0,29.74,SW,226,2.0,4.0,83,0.00,,,0.00,Wunderground v.1.15,2013-08-22 23:45:00,
2013-08-22 16:50:00,63.3,57.7,29.74,WSW,244,3.0,3.0,82,0.00,,,0.00,Wunderground v.1.15,2013-08-22 23:50:00,
2013-08-22 16:53:00,75.7,55.2,29.76,West,264,5.0,7.0,49,0.00,,,0.00,Wunderground v.1.15,2013-08-22 23:53:00,
2013-08-22 16:55:00,63.3,58.0,29.74,WSW,255,2.0,3.0,83,0.00,,,0.00,Wunderground v.1.15,2013-08-22 23:55:00,
2013-08-22 17:00:00,63.3,57.7,29.74,SSW,195,2.0,2.0,82,0.00,,,0.00,Wunderground v.1.15,2013-08-23 00:00:00,
2013-08-22 17:03:00,76.0,54.9,29.76,WSW,257,5.0,5.0,48,0.00,,,0.00,Wunderground v.1.15,2013-08-23 00:03:00,
2013-08-22 17:05:00,63.3,57.7,29.74,SW,229,1.0,2.0,82,0.00,,,0.00,Wunderground v.1.15,2013-08-23 00:05:00,
2013-08-22 17:10:00,63.3,57.7,29.74,SSW,201,1.0,1.0,82,0.00,,,0.00,Wunderground v.1.15,2013-08-23 00:10:00,
2013-08-22 17:13:00,75.6,54.5,29.76,West,268,5.0,10.0,48,0.00,,,0.00,Wunderground v.1.15,2013-08-23 00:13:00,
2013-08-22 17:15:00,63.4,57.8,29.74,SW,223,1.0,3.0,82,0.00,,,0.00,Wunderground v.1.15,2013-08-23 00:15:00,
2013-08-22 17:18:00,75.7,54.0,29.76,WNW,290,5.0,6.0,47,0.00,,,0.00,Wunderground v.1.15,2013-08-23 00:18:00,
2013-08-22 17:20:00,63.7,57.4,29.74,SSW,195,2.0,4.0,80,0.00,,,0.00,Wunderground v.1.15,2013-08-23 00:20:00,
2013-08-22 17:23:00,75.7,54.0,29.76,SW,229,4.0,6.0,47,0.00,,,0.00,Wunderground v.1.15,2013-08-23 00:23:00,
2013-08-22 17:25:00,64.1,57.5,29.74,WSW,239,3.0,4.0,79,0.00,,,0.00,Wunderground v.1.15,2013-08-23 00:25:00,
2013-08-22 17:30:00,64.2,57.5,29.74,SW,214,3.0,3.0,79,0.00,,,0.00,Wunderground v.1.15,2013-08-23 00:30:00,
2013-08-22 17:33:00,75.6,53.4,29.75,West,270,5.0,9.0,46,0.00,,,0.00,Wunderground v.1.15,2013-08-23 00:33:00,
2013-08-22 17:35:00,64.3,57.3,29.74,South,191,3.0,3.0,78,0.00,,,0.00,Wunderground v.1.15,2013-08-23 00:35:00,
2013-08-22 17:38:00,75.5,53.9,29.75,West,270,6.0,7.0,47,0.00,,,0.00,Wunderground v.1.15,2013-08-23 00:38:00,
2013-08-22 17:40:00,64.3,57.3,29.74,SSW,212,3.0,3.0,78,0.00,,,0.00,Wunderground v.1.15,2013-08-23 00:40:00,
2013-08-22 17:45:00,64.2,57.5,29.75,SW,219,3.0,3.0,79,0.00,,,0.00,Wunderground v.1.15,2013-08-23 00:45:00,
2013-08-22 17:48:00,75.1,52.9,29.75,WNW,286,5.0,6.0,46,0.00,,,0.00,Wunderground v.1.15,2013-08-23 00:48:00,
2013-08-22 17:50:00,64.1,57.5,29.75,SW,230,3.0,3.0,79,0.00,,,0.00,Wunderground v.1.15,2013-08-23 00:50:00,
2013-08-22 17:55:00,63.8,57.5,29.75,South,181,3.0,5.0,80,0.00,,,0.00,Wunderground v.1.15,2013-08-23 00:55:00,
2013-08-22 17:58:00,74.0,53.1,29.75,West,271,6.0,6.0,48,0.00,,,0.00,Wunderground v.1.15,2013-08-23 00:58:00,
2013-08-22 18:00:00,63.6,57.7,29.74,West,264,3.0,3.0,81,0.00,,,0.00,Wunderground v.1.15,2013-08-23 01:00:00,
2013-08-22 18:03:00,73.7,52.8,29.75,WSW,240,6.0,6.0,48,0.00,,,0.00,Wunderground v.1.15,2013-08-23 01:03:00,
2013-08-22 18:05:00,63.3,57.7,29.74,WSW,239,3.0,3.0,82,0.00,,,0.00,Wunderground v.1.15,2013-08-23 01:05:00,
2013-08-22 18:08:00,73.4,53.1,29.75,WSW,243,5.0,5.0,49,0.00,,,0.00,Wunderground v.1.15,2013-08-23 01:08:00,
2013-08-22 18:10:00,63.1,57.9,29.75,SW,223,3.0,3.0,83,0.00,,,0.00,Wunderground v.1.15,2013-08-23 01:10:00,
2013-08-22 18:15:00,62.9,57.7,29.74,SW,227,3.0,3.0,83,0.00,,,0.00,Wunderground v.1.15,2013-08-23 01:15:00,
2013-08-22 18:18:00,72.5,53.3,29.76,WSW,246,6.0,6.0,51,0.00,,,0.00,Wunderground v.1.15,2013-08-23 01:18:00,
2013-08-22 18:20:00,62.7,57.8,29.74,SW,231,2.0,2.0,84,0.00,,,0.00,Wunderground v.1.15,2013-08-23 01:20:00,
2013-08-22 18:25:00,62.6,57.7,29.75,West,270,2.0,2.0,84,0.00,,,0.00,Wunderground v.1.15,2013-08-23 01:25:00,
2013-08-22 18:28:00,71.3,53.8,29.76,West,274,6.0,15.0,54,0.00,,,0.00,Wunderground v.1.15,2013-08-23 01:28:00,
2013-08-22 18:30:00,62.4,57.8,29.75,SW,226,2.0,3.0,85,0.00,,,0.00,Wunderground v.1.15,2013-08-23 01:30:00,
2013-08-22 18:33:00,70.5,53.6,29.76,WSW,255,6.0,15.0,55,0.00,,,0.00,Wunderground v.1.15,2013-08-23 01:33:00,
2013-08-22 18:35:00,62.3,57.7,29.75,WNW,285,2.0,3.0,85,0.00,,,0.00,Wunderground v.1.15,2013-08-23 01:35:00,
2013-08-22 18:38:00,70.2,54.2,29.76,West,259,6.0,10.0,57,0.00,,,0.00,Wunderground v.1.15,2013-08-23 01:38:00,
2013-08-22 18:40:00,62.2,57.6,29.75,West,276,1.0,2.0,85,0.00,,,0.00,Wunderground v.1.15,2013-08-23 01:40:00,
2013-08-22 18:45:00,62.2,57.6,29.75,WSW,256,1.0,2.0,85,0.00,,,0.00,Wunderground v.1.15,2013-08-23 01:45:00,
2013-08-22 18:48:00,68.7,53.8,29.76,West,269,7.0,7.0,59,0.00,,,0.00,Wunderground v.1.15,2013-08-23 01:48:00,
2013-08-22 18:50:00,62.2,57.6,29.74,SW,236,1.0,2.0,85,0.00,,,0.00,Wunderground v.1.15,2013-08-23 01:50:00,
2013-08-22 18:53:00,68.5,53.6,29.76,WSW,252,5.0,7.0,59,0.00,,,0.00,Wunderground v.1.15,2013-08-23 01:53:00,
2013-08-22 18:55:00,62.3,57.7,29.75,SW,221,1.0,2.0,85,0.00,,,0.00,Wunderground v.1.15,2013-08-23 01:55:00,
2013-08-22 19:00:00,62.3,57.7,29.75,SSW,201,2.0,2.0,85,0.00,,,0.00,Wunderground v.1.15,2013-08-23 02:00:00,
2013-08-22 19:03:00,68.2,54.2,29.76,West,261,5.0,5.0,61,0.00,,,0.00,Wunderground v.1.15,2013-08-23 02:03:00,
2013-08-22 19:05:00,62.3,57.7,29.75,SW,221,2.0,2.0,85,0.00,,,0.00,Wunderground v.1.15,2013-08-23 02:05:00,
2013-08-22 19:08:00,68.0,54.0,29.76,WSW,246,4.0,6.0,61,0.00,,,0.00,Wunderground v.1.15,2013-08-23 02:08:00,
2013-08-22 19:10:00,62.3,57.7,29.75,WSW,243,2.0,3.0,85,0.00,,,0.00,Wunderground v.1.15,2013-08-23 02:10:00,
2013-08-22 19:15:00,62.2,57.6,29.75,SSW,199,2.0,3.0,85,0.00,,,0.00,Wunderground v.1.15,2013-08-23 02:15:00,
2013-08-22 19:18:00,67.8,54.3,29.76,WSW,250,5.0,5.0,62,0.00,,,0.00,Wunderground v.1.15,2013-08-23 02:18:00,
2013-08-22 19:20:00,62.1,57.5,29.75,SSW,210,2.0,3.0,85,0.00,,,0.00,Wunderground v.1.15,2013-08-23 02:20:00,
2013-08-22 19:25:00,62.0,57.8,29.75,WSW,239,3.0,4.0,86,0.00,,,0.00,Wunderground v.1.15,2013-08-23 02:25:00,
2013-08-22 19:28:00,67.5,54.5,29.77,WNW,283,4.0,4.0,63,0.00,,,0.00,Wunderground v.1.15,2013-08-23 02:28:00,
2013-08-22 19:30:00,61.9,57.7,29.75,SW,226,3.0,4.0,86,0.00,,,0.00,Wunderground v.1.15,2013-08-23 02:30:00,
2013-08-22 19:35:00,61.8,57.6,29.75,SSW,206,4.0,4.0,86,0.00,,,0.00,Wunderground v.1.15,2013-08-23 02:35:00,
2013-08-22 19:38:00,66.7,54.1,29.77,WNW,283,4.0,6.0,64,0.00,,,0.00,Wunderground v.1.15,2013-08-23 02:38:00,
2013-08-22 19:40:00,61.7,57.5,29.75,SSW,208,3.0,3.0,86,0.00,,,0.00,Wunderground v.1.15,2013-08-23 02:40:00,
2013-08-22 19:45:00,61.6,57.4,29.75,WSW,254,2.0,3.0,86,0.00,,,0.00,Wunderground v.1.15,2013-08-23 02:45:00,
2013-08-22 19:48:00,65.7,54.4,29.78,WSW,255,4.0,4.0,67,0.00,,,0.00,Wunderground v.1.15,2013-08-23 02:48:00,
2013-08-22 19:50:00,61.6,57.4,29.75,West,267,3.0,4.0,86,0.00,,,0.00,Wunderground v.1.15,2013-08-23 02:50:00,
2013-08-22 19:55:00,61.7,57.1,29.75,SW,226,3.0,4.0,85,0.00,,,0.00,Wunderground v.1.15,2013-08-23 02:55:00,
2013-08-22 19:58:00,64.9,54.1,29.78,West,273,4.0,9.0,68,0.00,,,0.00,Wunderground v.1.15,2013-08-23 02:58:00,
2013-08-22 20:00:00,61.6,57.0,29.75,WSW,248,2.0,2.0,85,0.00,,,0.00,Wunderground v.1.15,2013-08-23 03:00:00,
2013-08-22 20:03:00,64.5,54.1,29.78,WSW,249,5.0,9.0,69,0.00,,,0.00,Wunderground v.1.15,2013-08-23 03:03:00,
2013-08-22 20:05:00,61.6,57.0,29.75,SW,234,1.0,2.0,85,0.00,,,0.00,Wunderground v.1.15,2013-08-23 03:05:00,
2013-08-22 20:10:00,61.6,57.0,29.75,SW,228,1.0,1.0,85,0.00,,,0.00,Wunderground v.1.15,2013-08-23 03:10:00,
2013-08-22 20:13:00,63.9,54.3,29.78,WSW,237,4.0,4.0,71,0.00,,,0.00,Wunderground v.1.15,2013-08-23 03:13:00,
2013-08-22 20:15:00,61.6,57.0,29.75,WSW,254,1.0,1.0,85,0.00,,,0.00,Wunderground v.1.15,2013-08-23 03:15:00,
2013-08-22 20:20:00,61.5,56.9,29.75,SW,228,2.0,2.0,85,0.00,,,0.00,Wunderground v.1.15,2013-08-23 03:20:00,
2013-08-22 20:23:00,63.4,54.2,29.78,WSW,255,3.0,3.0,72,0.00,,,0.00,Wunderground v.1.15,2013-08-23 03:23:00,
2013-08-22 20:25:00,61.4,57.2,29.75,WSW,257,2.0,2.0,86,0.00,,,0.00,Wunderground v.1.15,2013-08-23 03:25:00,
2013-08-22 20:30:00,61.3,57.1,29.75,SW,234,1.0,1.0,86,0.00,,,0.00,Wunderground v.1.15,2013-08-23 03:30:00,
2013-08-22 20:33:00,63.0,54.2,29.78,WSW,248,2.0,2.0,73,0.00,,,0.00,Wunderground v.1.15,2013-08-23 03:33:00,
2013-08-22 20:35:00,61.2,57.0,29.75,SSW,195,1.0,1.0,86,0.00,,,0.00,Wunderground v.1.15,2013-08-23 03:35:00,
2013-08-22 20:40:00,61.0,56.8,29.75,SSW,205,1.0,1.0,86,0.00,,,0.00,Wunderground v.1.15,2013-08-23 03:40:00,
2013-08-22 20:43:00,62.6,54.2,29.79,West,274,2.0,3.0,74,0.00,,,0.00,Wunderground v.1.15,2013-08-23 03:43:00,
2013-08-22 20:45:00,60.8,56.9,29.75,SW,227,1.0,1.0,87,0.00,,,0.00,Wunderground v.1.15,2013-08-23 03:45:00,
2013-08-22 20:48:00,62.4,54.4,29.79,West,259,2.0,2.0,75,0.00,,,0.00,Wunderground v.1.15,2013-08-23 03:48:00,
2013-08-22 20:50:00,60.7,57.1,29.75,SW,216,1.0,2.0,88,0.00,,,0.00,Wunderground v.1.15,2013-08-23 03:50:00,
2013-08-22 20:55:00,60.6,57.0,29.75,WSW,252,2.0,2.0,88,0.00,,,0.00,Wunderground v.1.15,2013-08-23 03:55:00,
2013-08-22 20:58:00,62.0,54.0,29.79,West,276,2.0,2.0,75,0.00,,,0.00,Wunderground v.1.15,2013-08-23 03:58:00,
2013-08-22 21:00:00,60.5,57.2,29.75,SSW,205,2.0,2.0,89,0.00,,,0.00,Wunderground v.1.15,2013-08-23 04:00:00,
2013-08-22 21:05:00,60.4,57.1,29.74,SSW,205,1.0,3.0,89,0.00,,,0.00,Wunderground v.1.15,2013-08-23 04:05:00,
2013-08-22 21:10:00,60.2,56.9,29.74,SSW,210,1.0,1.0,89,0.00,,,0.00,Wunderground v.1.15,2013-08-23 04:10:00,
2013-08-22 21:15:00,60.1,57.2,29.74,WSW,252,1.0,2.0,90,0.00,,,0.00,Wunderground v.1.15,2013-08-23 04:15:00,
2013-08-22 21:20:00,60.1,57.2,29.74,SW,230,1.0,2.0,90,0.00,,,0.00,Wunderground v.1.15,2013-08-23 04:20:00,
2013-08-22 21:25:00,60.0,57.1,29.74,SW,223,1.0,2.0,90,0.00,,,0.00,Wunderground v.1.15,2013-08-23 04:25:00,
2013-08-22 21:30:00,59.9,57.0,29.74,WSW,250,1.0,1.0,90,0.00,,,0.00,Wunderground v.1.15,2013-08-23 04:30:00,
2013-08-22 21:35:00,59.9,57.0,29.74,SSW,210,1.0,1.0,90,0.00,,,0.00,Wunderground v.1.15,2013-08-23 04:35:00,
2013-08-22 21:40:00,59.8,56.9,29.74,SW,214,1.0,2.0,90,0.00,,,0.00,Wunderground v.1.15,2013-08-23 04:40:00,
2013-08-22 21:45:00,59.8,56.9,29.74,WSW,250,2.0,2.0,90,0.00,,,0.00,Wunderground v.1.15,2013-08-23 04:45:00,
2013-08-22 21:50:00,59.9,57.0,29.74,SW,232,2.0,2.0,90,0.00,,,0.00,Wunderground v.1.15,2013-08-23 04:50:00,
2013-08-22 21:55:00,59.9,57.0,29.74,SW,217,2.0,2.0,90,0.00,,,0.00,Wunderground v.1.15,2013-08-23 04:55:00,
2013-08-22 22:00:00,59.9,57.0,29.74,SW,227,2.0,3.0,90,0.00,,,0.00,Wunderground v.1.15,2013-08-23 05:00:00,
2013-08-22 22:05:00,59.9,57.0,29.74,SW,217,3.0,3.0,90,0.00,,,0.00,Wunderground v.1.15,2013-08-23 05:05:00,
2013-08-22 22:15:00,60.0,57.1,29.74,SW,219,3.0,3.0,90,0.00,,,0.00,Wunderground v.1.15,2013-08-23 05:15:00,
2013-08-22 22:25:00,59.9,57.3,29.74,WSW,240,3.0,7.0,91,0.00,,,0.00,Wunderground v.1.15,2013-08-23 05:25:00,
2013-08-22 22:30:00,59.9,57.3,29.74,WSW,240,3.0,3.0,91,0.00,,,0.00,Wunderground v.1.15,2013-08-23 05:30:00,
2013-08-22 22:35:00,59.8,57.2,29.74,SSW,207,2.0,3.0,91,0.00,,,0.00,Wunderground v.1.15,2013-08-23 05:35:00,
2013-08-22 22:40:00,59.7,57.1,29.74,West,268,1.0,1.0,91,0.00,,,0.00,Wunderground v.1.15,2013-08-23 05:40:00,
2013-08-22 22:45:00,59.7,57.1,29.74,SW,223,1.0,1.0,91,0.00,,,0.00,Wunderground v.1.15,2013-08-23 05:45:00,
2013-08-22 22:55:00,59.5,56.9,29.74,West,276,0.0,0.0,91,0.00,,,0.00,Wunderground v.1.15,2013-08-23 05:55:00,
2013-08-22 23:00:00,59.4,56.8,29.74,West,276,0.0,0.0,91,0.00,,,0.00,Wunderground v.1.15,2013-08-23 06:00:00,
2013-08-22 23:05:00,59.4,56.8,29.74,WSW,244,0.0,0.0,91,0.00,,,0.00,Wunderground v.1.15,2013-08-23 06:05:00,
2013-08-22 23:10:00,59.4,56.8,29.74,WSW,238,0.0,1.0,91,0.00,,,0.00,Wunderground v.1.15,2013-08-23 06:10:00,
2013-08-22 23:15:00,59.4,56.8,29.74,WSW,248,1.0,1.0,91,0.00,,,0.00,Wunderground v.1.15,2013-08-23 06:15:00,
2013-08-22 23:20:00,58.3,56.0,29.74,WSW,248,0.0,0.0,92,0.00,,,0.00,Wunderground v.1.15,2013-08-23 06:20:00,
2013-08-22 23:25:00,59.3,56.7,29.74,WSW,248,0.0,1.0,91,0.00,,,0.00,Wunderground v.1.15,2013-08-23 06:25:00,
2013-08-22 23:30:00,59.2,56.6,29.75,WSW,248,0.0,0.0,91,0.00,,,0.00,Wunderground v.1.15,2013-08-23 06:30:00,
2013-08-22 23:35:00,59.1,56.5,29.74,WSW,248,0.0,0.0,91,0.00,,,0.00,Wunderground v.1.15,2013-08-23 06:35:00,
2013-08-22 23:40:00,58.6,56.6,29.75,SW,221,1.0,1.0,93,0.00,,,0.00,Wunderground v.1.15,2013-08-23 06:40:00,
2013-08-22 23:45:00,58.6,56.0,29.74,WSW,248,0.0,0.0,91,0.00,,,0.00,Wunderground v.1.15,2013-08-23 06:45:00,
2013-08-22 23:50:00,58.9,56.9,29.74,SSW,202,2.0,3.0,93,0.00,,,0.00,Wunderground v.1.15,2013-08-23 06:50:00,
2013-08-22 23:55:00,58.9,56.6,29.75,SW,223,2.0,3.0,92,0.00,,,0.00,Wunderground v.1.15,2013-08-23 06:55:00,